Abegondo, Spain
Current Conditions -  °F | °C
As of 4:00 PM on Tuesday 21 Oct 2014 (Local Time) from LECO Reporting Station
Broken Clouds Broken Clouds  
Wind Chill: 63°   Ceiling: 700
Heat Index: 63°   Visibility: 6mi
Dew Point: 63°   Wind: 3mph
Humidity: 100%   Direction: 360°N
Pressure: 30.36"   Gusts: NA
Location:  43.22°N, 8.28°W
Report Text: LECO 211400Z 36003KT 320V040 9999 FEW005 BKN007 17/17 Q1028 NOSIG
Loading
Personal Weather Stations






























Interactive Weather Map New forecast layout! Learn more

10-Day Weather Forecast

Advertisements
Track Severe Weather on mobile